sensor_id;sensor_type;location;lat;lon;timestamp;temperature;humidity
41628;DHT22;27321;50.816;6.054;2022-12-28T00:01:44;8.00;74.40
41628;DHT22;27321;50.816;6.054;2022-12-28T00:04:45;8.00;74.20
41628;DHT22;27321;50.816;6.054;2022-12-28T00:07:47;8.00;74.30
41628;DHT22;27321;50.816;6.054;2022-12-28T00:10:47;8.00;74.20
41628;DHT22;27321;50.816;6.054;2022-12-28T00:13:49;8.00;74.50
41628;DHT22;27321;50.816;6.054;2022-12-28T00:16:50;8.00;74.20
41628;DHT22;27321;50.816;6.054;2022-12-28T00:19:50;8.00;74.10
41628;DHT22;27321;50.816;6.054;2022-12-28T00:22:51;8.10;74.30
41628;DHT22;27321;50.816;6.054;2022-12-28T00:25:52;8.10;74.20
41628;DHT22;27321;50.816;6.054;2022-12-28T00:28:53;8.10;74.30
41628;DHT22;27321;50.816;6.054;2022-12-28T00:31:54;8.20;74.30
41628;DHT22;27321;50.816;6.054;2022-12-28T00:34:57;8.20;73.80
41628;DHT22;27321;50.816;6.054;2022-12-28T00:38:00;8.20;73.70
41628;DHT22;27321;50.816;6.054;2022-12-28T00:41:01;8.20;74.30
41628;DHT22;27321;50.816;6.054;2022-12-28T00:44:02;8.20;75.00
41628;DHT22;27321;50.816;6.054;2022-12-28T00:47:03;8.20;75.30
41628;DHT22;27321;50.816;6.054;2022-12-28T00:50:04;8.20;75.70
41628;DHT22;27321;50.816;6.054;2022-12-28T00:53:06;8.20;75.90
41628;DHT22;27321;50.816;6.054;2022-12-28T00:56:12;8.30;75.60
41628;DHT22;27321;50.816;6.054;2022-12-28T00:59:15;8.30;75.80
41628;DHT22;27321;50.816;6.054;2022-12-28T01:02:17;8.30;75.80
41628;DHT22;27321;50.816;6.054;2022-12-28T01:05:18;8.20;76.00
41628;DHT22;27321;50.816;6.054;2022-12-28T01:08:19;8.20;76.30
41628;DHT22;27321;50.816;6.054;2022-12-28T01:11:23;8.20;76.30
41628;DHT22;27321;50.816;6.054;2022-12-28T01:14:27;8.20;76.20
41628;DHT22;27321;50.816;6.054;2022-12-28T01:17:28;8.20;75.70
41628;DHT22;27321;50.816;6.054;2022-12-28T01:20:31;8.20;75.70
41628;DHT22;27321;50.816;6.054;2022-12-28T01:23:32;8.20;75.70
41628;DHT22;27321;50.816;6.054;2022-12-28T01:26:33;8.20;75.70
41628;DHT22;27321;50.816;6.054;2022-12-28T01:29:34;8.30;75.60
41628;DHT22;27321;50.816;6.054;2022-12-28T01:32:35;8.30;75.30
41628;DHT22;27321;50.816;6.054;2022-12-28T01:35:35;8.30;75.40
41628;DHT22;27321;50.816;6.054;2022-12-28T01:38:36;8.30;75.80
41628;DHT22;27321;50.816;6.054;2022-12-28T01:41:40;8.30;75.20
41628;DHT22;27321;50.816;6.054;2022-12-28T01:44:43;8.30;75.30
41628;DHT22;27321;50.816;6.054;2022-12-28T01:47:48;8.30;75.20
41628;DHT22;27321;50.816;6.054;2022-12-28T01:50:51;8.30;75.50
41628;DHT22;27321;50.816;6.054;2022-12-28T01:53:53;8.30;75.60
41628;DHT22;27321;50.816;6.054;2022-12-28T01:56:56;8.30;75.60
41628;DHT22;27321;50.816;6.054;2022-12-28T02:00:04;8.30;75.70
41628;DHT22;27321;50.816;6.054;2022-12-28T02:03:28;8.30;75.70
41628;DHT22;27321;50.816;6.054;2022-12-28T02:06:31;8.40;75.70
41628;DHT22;27321;50.816;6.054;2022-12-28T02:09:37;8.30;75.90
41628;DHT22;27321;50.816;6.054;2022-12-28T02:12:40;8.40;75.80
41628;DHT22;27321;50.816;6.054;2022-12-28T02:15:42;8.40;75.80
41628;DHT22;27321;50.816;6.054;2022-12-28T02:18:45;8.30;75.50
41628;DHT22;27321;50.816;6.054;2022-12-28T02:33:24;8.40;75.90
41628;DHT22;27321;50.816;6.054;2022-12-28T02:36:33;8.40;76.00
41628;DHT22;27321;50.816;6.054;2022-12-28T02:39:47;8.40;75.80
41628;DHT22;27321;50.816;6.054;2022-12-28T02:42:52;8.40;76.00
41628;DHT22;27321;50.816;6.054;2022-12-28T02:45:54;8.40;76.10
41628;DHT22;27321;50.816;6.054;2022-12-28T02:49:21;8.50;76.00
41628;DHT22;27321;50.816;6.054;2022-12-28T02:53:04;8.50;76.10
41628;DHT22;27321;50.816;6.054;2022-12-28T03:00:05;8.50;76.60
41628;DHT22;27321;50.816;6.054;2022-12-28T03:03:38;8.50;76.60
41628;DHT22;27321;50.816;6.054;2022-12-28T03:07:16;8.50;77.10
41628;DHT22;27321;50.816;6.054;2022-12-28T03:10:42;8.50;76.80
41628;DHT22;27321;50.816;6.054;2022-12-28T03:14:01;8.50;76.90
41628;DHT22;27321;50.816;6.054;2022-12-28T03:17:07;8.50;76.70
41628;DHT22;27321;50.816;6.054;2022-12-28T03:20:29;8.60;76.70
41628;DHT22;27321;50.816;6.054;2022-12-28T03:23:51;8.60;76.70
41628;DHT22;27321;50.816;6.054;2022-12-28T03:27:14;8.60;76.80
41628;DHT22;27321;50.816;6.054;2022-12-28T03:30:37;8.60;76.60
41628;DHT22;27321;50.816;6.054;2022-12-28T03:33:59;8.60;76.60
41628;DHT22;27321;50.816;6.054;2022-12-28T03:37:29;8.60;76.40
41628;DHT22;27321;50.816;6.054;2022-12-28T03:40:49;8.70;76.40
41628;DHT22;27321;50.816;6.054;2022-12-28T03:43:58;8.70;76.20
41628;DHT22;27321;50.816;6.054;2022-12-28T03:47:11;8.80;76.10
41628;DHT22;27321;50.816;6.054;2022-12-28T03:50:13;8.80;76.30
41628;DHT22;27321;50.816;6.054;2022-12-28T03:53:16;8.70;76.50
41628;DHT22;27321;50.816;6.054;2022-12-28T03:56:26;8.80;76.40
41628;DHT22;27321;50.816;6.054;2022-12-28T03:59:30;8.80;76.40
41628;DHT22;27321;50.816;6.054;2022-12-28T04:02:34;8.70;76.50
41628;DHT22;27321;50.816;6.054;2022-12-28T04:05:36;8.80;76.60
41628;DHT22;27321;50.816;6.054;2022-12-28T04:08:37;8.70;76.70
41628;DHT22;27321;50.816;6.054;2022-12-28T04:11:39;8.80;76.70
41628;DHT22;27321;50.816;6.054;2022-12-28T04:14:43;8.80;76.90
41628;DHT22;27321;50.816;6.054;2022-12-28T04:17:44;8.80;76.90
41628;DHT22;27321;50.816;6.054;2022-12-28T04:20:45;8.80;77.10
41628;DHT22;27321;50.816;6.054;2022-12-28T04:23:46;8.80;76.90
41628;DHT22;27321;50.816;6.054;2022-12-28T04:27:06;8.80;77.00
41628;DHT22;27321;50.816;6.054;2022-12-28T04:30:08;8.80;77.20
41628;DHT22;27321;50.816;6.054;2022-12-28T04:33:09;8.80;77.30
41628;DHT22;27321;50.816;6.054;2022-12-28T04:36:16;8.80;77.20
41628;DHT22;27321;50.816;6.054;2022-12-28T04:39:19;8.80;77.30
41628;DHT22;27321;50.816;6.054;2022-12-28T04:42:21;8.80;77.20
41628;DHT22;27321;50.816;6.054;2022-12-28T04:45:22;8.90;77.40
41628;DHT22;27321;50.816;6.054;2022-12-28T04:48:23;8.80;77.20
41628;DHT22;27321;50.816;6.054;2022-12-28T04:51:26;8.90;77.30
41628;DHT22;27321;50.816;6.054;2022-12-28T04:54:28;8.90;77.40
41628;DHT22;27321;50.816;6.054;2022-12-28T04:57:29;9.00;77.20
41628;DHT22;27321;50.816;6.054;2022-12-28T05:00:30;9.00;77.30
41628;DHT22;27321;50.816;6.054;2022-12-28T05:03:31;9.00;76.80
41628;DHT22;27321;50.816;6.054;2022-12-28T05:06:32;9.00;76.70
41628;DHT22;27321;50.816;6.054;2022-12-28T05:09:33;9.00;76.50
41628;DHT22;27321;50.816;6.054;2022-12-28T05:12:34;9.10;76.50
41628;DHT22;27321;50.816;6.054;2022-12-28T05:15:36;9.10;76.30
41628;DHT22;27321;50.816;6.054;2022-12-28T05:18:37;9.10;76.30
41628;DHT22;27321;50.816;6.054;2022-12-28T05:25:09;9.10;76.60
41628;DHT22;27321;50.816;6.054;2022-12-28T05:28:10;9.10;76.80
41628;DHT22;27321;50.816;6.054;2022-12-28T05:31:13;9.10;76.90
41628;DHT22;27321;50.816;6.054;2022-12-28T05:34:17;9.10;76.70
41628;DHT22;27321;50.816;6.054;2022-12-28T05:37:18;9.10;77.10
41628;DHT22;27321;50.816;6.054;2022-12-28T05:40:20;9.10;77.20
41628;DHT22;27321;50.816;6.054;2022-12-28T05:43:20;9.10;77.20
41628;DHT22;27321;50.816;6.054;2022-12-28T05:46:32;9.20;77.30
41628;DHT22;27321;50.816;6.054;2022-12-28T05:49:34;9.20;77.20
41628;DHT22;27321;50.816;6.054;2022-12-28T05:52:35;9.20;77.30
41628;DHT22;27321;50.816;6.054;2022-12-28T05:55:36;9.20;77.20
41628;DHT22;27321;50.816;6.054;2022-12-28T05:58:38;9.20;77.20
41628;DHT22;27321;50.816;6.054;2022-12-28T06:01:41;9.20;77.20
41628;DHT22;27321;50.816;6.054;2022-12-28T06:04:43;9.30;77.30
41628;DHT22;27321;50.816;6.054;2022-12-28T06:07:44;9.30;77.10
41628;DHT22;27321;50.816;6.054;2022-12-28T06:10:45;9.30;77.00
41628;DHT22;27321;50.816;6.054;2022-12-28T06:13:46;9.30;77.00
41628;DHT22;27321;50.816;6.054;2022-12-28T06:16:48;9.30;77.10
41628;DHT22;27321;50.816;6.054;2022-12-28T06:19:48;9.30;77.40
41628;DHT22;27321;50.816;6.054;2022-12-28T06:22:50;9.20;77.80
41628;DHT22;27321;50.816;6.054;2022-12-28T06:25:51;9.30;77.90
41628;DHT22;27321;50.816;6.054;2022-12-28T06:28:52;9.20;77.90
41628;DHT22;27321;50.816;6.054;2022-12-28T06:31:53;9.20;78.20
41628;DHT22;27321;50.816;6.054;2022-12-28T06:34:54;9.20;78.20
41628;DHT22;27321;50.816;6.054;2022-12-28T06:37:55;9.30;78.10
41628;DHT22;27321;50.816;6.054;2022-12-28T06:41:01;9.30;78.20
41628;DHT22;27321;50.816;6.054;2022-12-28T06:44:08;9.20;78.10
41628;DHT22;27321;50.816;6.054;2022-12-28T06:47:10;9.20;78.20
41628;DHT22;27321;50.816;6.054;2022-12-28T06:50:11;9.20;78.00
41628;DHT22;27321;50.816;6.054;2022-12-28T06:53:12;9.30;78.10
41628;DHT22;27321;50.816;6.054;2022-12-28T06:56:16;9.30;78.50
41628;DHT22;27321;50.816;6.054;2022-12-28T06:59:26;9.30;78.40
41628;DHT22;27321;50.816;6.054;2022-12-28T07:02:26;9.30;78.20
41628;DHT22;27321;50.816;6.054;2022-12-28T07:05:28;9.30;78.20
41628;DHT22;27321;50.816;6.054;2022-12-28T07:08:30;9.30;78.20
41628;DHT22;27321;50.816;6.054;2022-12-28T07:11:32;9.40;78.30
41628;DHT22;27321;50.816;6.054;2022-12-28T07:14:33;9.30;78.30
41628;DHT22;27321;50.816;6.054;2022-12-28T07:17:34;9.40;78.30
41628;DHT22;27321;50.816;6.054;2022-12-28T07:20:35;9.40;78.20
41628;DHT22;27321;50.816;6.054;2022-12-28T07:23:36;9.40;78.30
41628;DHT22;27321;50.816;6.054;2022-12-28T07:26:37;9.40;78.30
41628;DHT22;27321;50.816;6.054;2022-12-28T07:29:38;9.40;78.20
41628;DHT22;27321;50.816;6.054;2022-12-28T07:32:41;9.30;78.30
41628;DHT22;27321;50.816;6.054;2022-12-28T07:35:42;9.40;78.30
41628;DHT22;27321;50.816;6.054;2022-12-28T07:38:43;9.40;78.30
41628;DHT22;27321;50.816;6.054;2022-12-28T07:41:44;9.40;78.10
41628;DHT22;27321;50.816;6.054;2022-12-28T07:44:45;9.40;78.50
41628;DHT22;27321;50.816;6.054;2022-12-28T07:47:47;9.40;78.30
41628;DHT22;27321;50.816;6.054;2022-12-28T07:50:48;9.50;78.10
41628;DHT22;27321;50.816;6.054;2022-12-28T07:53:53;9.50;78.20
41628;DHT22;27321;50.816;6.054;2022-12-28T07:56:55;9.50;78.00
41628;DHT22;27321;50.816;6.054;2022-12-28T07:59:56;9.50;77.80
41628;DHT22;27321;50.816;6.054;2022-12-28T08:02:57;9.50;78.00
41628;DHT22;27321;50.816;6.054;2022-12-28T08:06:06;9.50;78.30
41628;DHT22;27321;50.816;6.054;2022-12-28T08:09:10;9.50;78.00
41628;DHT22;27321;50.816;6.054;2022-12-28T08:12:13;9.50;78.00
41628;DHT22;27321;50.816;6.054;2022-12-28T08:15:14;9.50;78.10
41628;DHT22;27321;50.816;6.054;2022-12-28T08:18:15;9.60;78.10
41628;DHT22;27321;50.816;6.054;2022-12-28T08:21:20;9.60;78.10
41628;DHT22;27321;50.816;6.054;2022-12-28T08:24:23;9.60;78.10
41628;DHT22;27321;50.816;6.054;2022-12-28T08:27:24;9.60;77.70
41628;DHT22;27321;50.816;6.054;2022-12-28T08:30:25;9.60;78.00
41628;DHT22;27321;50.816;6.054;2022-12-28T08:33:26;9.60;77.70
41628;DHT22;27321;50.816;6.054;2022-12-28T08:36:28;9.70;77.60
41628;DHT22;27321;50.816;6.054;2022-12-28T08:39:29;9.70;77.30
41628;DHT22;27321;50.816;6.054;2022-12-28T08:42:30;9.70;77.30
41628;DHT22;27321;50.816;6.054;2022-12-28T08:45:31;9.70;77.40
41628;DHT22;27321;50.816;6.054;2022-12-28T08:48:33;9.70;77.50
41628;DHT22;27321;50.816;6.054;2022-12-28T08:51:36;9.80;77.20
41628;DHT22;27321;50.816;6.054;2022-12-28T08:54:39;9.80;77.10
41628;DHT22;27321;50.816;6.054;2022-12-28T08:57:40;9.80;77.10
41628;DHT22;27321;50.816;6.054;2022-12-28T09:00:41;9.80;77.00
41628;DHT22;27321;50.816;6.054;2022-12-28T09:03:44;9.80;77.10
41628;DHT22;27321;50.816;6.054;2022-12-28T09:06:47;9.90;76.60
41628;DHT22;27321;50.816;6.054;2022-12-28T09:09:48;9.90;76.90
41628;DHT22;27321;50.816;6.054;2022-12-28T09:12:49;9.90;77.10
41628;DHT22;27321;50.816;6.054;2022-12-28T09:15:59;9.90;76.90
41628;DHT22;27321;50.816;6.054;2022-12-28T09:19:03;9.90;76.90
41628;DHT22;27321;50.816;6.054;2022-12-28T09:22:05;10.00;76.90
41628;DHT22;27321;50.816;6.054;2022-12-28T09:25:07;10.00;77.00
41628;DHT22;27321;50.816;6.054;2022-12-28T09:28:08;10.00;76.80
41628;DHT22;27321;50.816;6.054;2022-12-28T09:31:09;10.10;77.00
41628;DHT22;27321;50.816;6.054;2022-12-28T09:34:11;10.10;76.90
41628;DHT22;27321;50.816;6.054;2022-12-28T09:37:13;10.10;76.50
41628;DHT22;27321;50.816;6.054;2022-12-28T09:40:13;10.20;76.50
41628;DHT22;27321;50.816;6.054;2022-12-28T09:43:15;10.20;76.20
41628;DHT22;27321;50.816;6.054;2022-12-28T09:46:18;10.30;76.10
41628;DHT22;27321;50.816;6.054;2022-12-28T09:49:32;10.30;76.00
41628;DHT22;27321;50.816;6.054;2022-12-28T09:53:10;10.30;76.00
41628;DHT22;27321;50.816;6.054;2022-12-28T09:59:36;10.30;75.80
41628;DHT22;27321;50.816;6.054;2022-12-28T10:02:37;10.40;75.80
41628;DHT22;27321;50.816;6.054;2022-12-28T10:05:39;10.40;75.70
41628;DHT22;27321;50.816;6.054;2022-12-28T10:08:52;10.40;75.40
41628;DHT22;27321;50.816;6.054;2022-12-28T10:11:57;10.40;75.40
41628;DHT22;27321;50.816;6.054;2022-12-28T10:15:11;10.40;75.70
41628;DHT22;27321;50.816;6.054;2022-12-28T10:18:14;10.50;75.30
41628;DHT22;27321;50.816;6.054;2022-12-28T10:21:29;10.50;75.20
41628;DHT22;27321;50.816;6.054;2022-12-28T10:24:32;10.60;75.20
41628;DHT22;27321;50.816;6.054;2022-12-28T10:27:33;10.60;74.90
41628;DHT22;27321;50.816;6.054;2022-12-28T10:31:09;10.70;74.90
41628;DHT22;27321;50.816;6.054;2022-12-28T10:34:16;10.70;74.70
41628;DHT22;27321;50.816;6.054;2022-12-28T10:37:20;10.80;75.00
41628;DHT22;27321;50.816;6.054;2022-12-28T10:40:27;10.90;74.20
41628;DHT22;27321;50.816;6.054;2022-12-28T10:43:38;11.00;74.10
41628;DHT22;27321;50.816;6.054;2022-12-28T10:46:50;11.00;73.90
41628;DHT22;27321;50.816;6.054;2022-12-28T10:49:53;11.10;72.80
41628;DHT22;27321;50.816;6.054;2022-12-28T10:52:55;11.10;72.60
41628;DHT22;27321;50.816;6.054;2022-12-28T10:59:21;11.10;72.30
41628;DHT22;27321;50.816;6.054;2022-12-28T11:02:28;11.10;72.10
41628;DHT22;27321;50.816;6.054;2022-12-28T11:05:29;11.10;72.00
41628;DHT22;27321;50.816;6.054;2022-12-28T11:08:30;11.10;71.90
41628;DHT22;27321;50.816;6.054;2022-12-28T11:11:31;11.00;71.60
41628;DHT22;27321;50.816;6.054;2022-12-28T11:14:35;11.00;71.10
41628;DHT22;27321;50.816;6.054;2022-12-28T11:17:37;11.10;70.80
41628;DHT22;27321;50.816;6.054;2022-12-28T11:21:03;11.00;71.00
41628;DHT22;27321;50.816;6.054;2022-12-28T11:24:04;11.00;70.90
41628;DHT22;27321;50.816;6.054;2022-12-28T11:27:10;11.00;70.90
41628;DHT22;27321;50.816;6.054;2022-12-28T11:30:15;11.00;71.20
41628;DHT22;27321;50.816;6.054;2022-12-28T11:33:42;11.00;71.60
41628;DHT22;27321;50.816;6.054;2022-12-28T11:36:44;11.00;71.10
41628;DHT22;27321;50.816;6.054;2022-12-28T11:39:50;11.00;71.50
41628;DHT22;27321;50.816;6.054;2022-12-28T11:42:54;11.00;71.00
41628;DHT22;27321;50.816;6.054;2022-12-28T11:46:01;11.10;71.20
41628;DHT22;27321;50.816;6.054;2022-12-28T11:52:50;11.10;70.80
41628;DHT22;27321;50.816;6.054;2022-12-28T11:56:08;11.10;70.90
41628;DHT22;27321;50.816;6.054;2022-12-28T11:59:25;11.10;70.30
41628;DHT22;27321;50.816;6.054;2022-12-28T12:08:41;11.00;71.00
41628;DHT22;27321;50.816;6.054;2022-12-28T12:11:42;11.00;71.30
41628;DHT22;27321;50.816;6.054;2022-12-28T12:14:54;10.90;72.10
41628;DHT22;27321;50.816;6.054;2022-12-28T12:18:16;10.90;72.70
41628;DHT22;27321;50.816;6.054;2022-12-28T12:21:38;10.90;73.30
41628;DHT22;27321;50.816;6.054;2022-12-28T12:31:38;10.80;74.20
41628;DHT22;27321;50.816;6.054;2022-12-28T12:34:53;10.80;74.40
41628;DHT22;27321;50.816;6.054;2022-12-28T12:44:56;10.90;73.10
41628;DHT22;27321;50.816;6.054;2022-12-28T12:58:30;11.00;72.70
41628;DHT22;27321;50.816;6.054;2022-12-28T13:01:56;11.00;72.30
41628;DHT22;27321;50.816;6.054;2022-12-28T13:05:23;11.00;72.20
41628;DHT22;27321;50.816;6.054;2022-12-28T13:08:41;11.00;72.20
41628;DHT22;27321;50.816;6.054;2022-12-28T13:11:45;11.00;72.10
41628;DHT22;27321;50.816;6.054;2022-12-28T13:14:49;11.00;71.60
41628;DHT22;27321;50.816;6.054;2022-12-28T13:18:00;11.10;71.70
41628;DHT22;27321;50.816;6.054;2022-12-28T13:21:04;11.00;71.60
41628;DHT22;27321;50.816;6.054;2022-12-28T13:24:21;11.00;71.70
41628;DHT22;27321;50.816;6.054;2022-12-28T13:27:33;11.00;71.20
41628;DHT22;27321;50.816;6.054;2022-12-28T13:30:37;11.10;71.00
41628;DHT22;27321;50.816;6.054;2022-12-28T13:33:38;11.10;71.20
41628;DHT22;27321;50.816;6.054;2022-12-28T13:40:10;11.10;70.50
41628;DHT22;27321;50.816;6.054;2022-12-28T13:46:25;11.20;70.00
41628;DHT22;27321;50.816;6.054;2022-12-28T13:49:30;11.20;70.20
41628;DHT22;27321;50.816;6.054;2022-12-28T13:52:41;11.30;70.00
41628;DHT22;27321;50.816;6.054;2022-12-28T13:55:58;11.30;69.60
41628;DHT22;27321;50.816;6.054;2022-12-28T13:59:05;11.20;69.60
41628;DHT22;27321;50.816;6.054;2022-12-28T14:02:16;11.20;69.40
41628;DHT22;27321;50.816;6.054;2022-12-28T14:05:29;11.20;69.30
41628;DHT22;27321;50.816;6.054;2022-12-28T14:08:33;11.10;69.10
41628;DHT22;27321;50.816;6.054;2022-12-28T14:11:37;11.10;69.30
41628;DHT22;27321;50.816;6.054;2022-12-28T14:14:40;11.10;69.00
41628;DHT22;27321;50.816;6.054;2022-12-28T14:17:43;11.10;68.80
41628;DHT22;27321;50.816;6.054;2022-12-28T14:20:50;11.00;69.20
41628;DHT22;27321;50.816;6.054;2022-12-28T14:24:04;11.00;69.10
41628;DHT22;27321;50.816;6.054;2022-12-28T14:27:06;11.00;68.80
41628;DHT22;27321;50.816;6.054;2022-12-28T14:30:24;11.00;68.90
41628;DHT22;27321;50.816;6.054;2022-12-28T14:33:28;11.00;68.60
41628;DHT22;27321;50.816;6.054;2022-12-28T14:36:38;11.00;68.80
41628;DHT22;27321;50.816;6.054;2022-12-28T14:39:47;11.00;69.00
41628;DHT22;27321;50.816;6.054;2022-12-28T14:42:49;11.00;68.50
41628;DHT22;27321;50.816;6.054;2022-12-28T14:45:52;11.00;68.20
41628;DHT22;27321;50.816;6.054;2022-12-28T14:48:54;11.00;67.80
41628;DHT22;27321;50.816;6.054;2022-12-28T14:55:29;11.10;67.40
41628;DHT22;27321;50.816;6.054;2022-12-28T14:58:55;11.10;67.80
41628;DHT22;27321;50.816;6.054;2022-12-28T15:01:58;11.10;67.30
41628;DHT22;27321;50.816;6.054;2022-12-28T15:05:00;11.10;67.30
41628;DHT22;27321;50.816;6.054;2022-12-28T15:08:02;11.20;67.20
41628;DHT22;27321;50.816;6.054;2022-12-28T15:11:04;11.20;67.40
41628;DHT22;27321;50.816;6.054;2022-12-28T15:14:05;11.10;67.00
41628;DHT22;27321;50.816;6.054;2022-12-28T15:17:06;11.10;67.20
41628;DHT22;27321;50.816;6.054;2022-12-28T15:20:07;11.10;67.10
41628;DHT22;27321;50.816;6.054;2022-12-28T15:23:08;11.10;67.50
41628;DHT22;27321;50.816;6.054;2022-12-28T15:26:11;11.00;67.20
41628;DHT22;27321;50.816;6.054;2022-12-28T15:29:12;11.00;67.10
41628;DHT22;27321;50.816;6.054;2022-12-28T15:32:13;11.00;67.20
41628;DHT22;27321;50.816;6.054;2022-12-28T15:35:17;11.00;67.30
41628;DHT22;27321;50.816;6.054;2022-12-28T15:38:18;11.00;67.60
41628;DHT22;27321;50.816;6.054;2022-12-28T15:41:19;11.00;67.60
41628;DHT22;27321;50.816;6.054;2022-12-28T15:44:38;11.00;67.50
41628;DHT22;27321;50.816;6.054;2022-12-28T15:47:39;11.00;67.70
41628;DHT22;27321;50.816;6.054;2022-12-28T15:50:40;11.00;67.90
41628;DHT22;27321;50.816;6.054;2022-12-28T15:53:41;11.00;67.90
41628;DHT22;27321;50.816;6.054;2022-12-28T15:56:42;11.00;67.60
41628;DHT22;27321;50.816;6.054;2022-12-28T15:59:43;11.10;67.60
41628;DHT22;27321;50.816;6.054;2022-12-28T16:02:46;11.10;67.70
41628;DHT22;27321;50.816;6.054;2022-12-28T16:05:47;11.10;67.70
41628;DHT22;27321;50.816;6.054;2022-12-28T16:08:52;11.10;68.00
41628;DHT22;27321;50.816;6.054;2022-12-28T16:11:56;11.10;67.90
41628;DHT22;27321;50.816;6.054;2022-12-28T16:14:57;11.10;67.90
41628;DHT22;27321;50.816;6.054;2022-12-28T16:17:58;11.10;68.30
41628;DHT22;27321;50.816;6.054;2022-12-28T16:21:01;11.10;68.30
41628;DHT22;27321;50.816;6.054;2022-12-28T16:24:03;11.10;68.40
41628;DHT22;27321;50.816;6.054;2022-12-28T16:27:04;11.10;68.60
41628;DHT22;27321;50.816;6.054;2022-12-28T16:30:06;11.00;68.90
41628;DHT22;27321;50.816;6.054;2022-12-28T16:33:07;11.10;69.50
41628;DHT22;27321;50.816;6.054;2022-12-28T16:36:11;11.10;70.10
41628;DHT22;27321;50.816;6.054;2022-12-28T16:39:15;11.00;70.60
41628;DHT22;27321;50.816;6.054;2022-12-28T16:42:17;11.00;70.50
41628;DHT22;27321;50.816;6.054;2022-12-28T16:45:18;10.90;71.20
41628;DHT22;27321;50.816;6.054;2022-12-28T16:48:19;10.90;71.60
41628;DHT22;27321;50.816;6.054;2022-12-28T16:51:20;10.80;72.10
41628;DHT22;27321;50.816;6.054;2022-12-28T16:54:22;10.80;72.30
41628;DHT22;27321;50.816;6.054;2022-12-28T16:57:24;10.80;72.70
41628;DHT22;27321;50.816;6.054;2022-12-28T17:00:25;10.70;72.70
41628;DHT22;27321;50.816;6.054;2022-12-28T17:03:26;10.70;72.80
41628;DHT22;27321;50.816;6.054;2022-12-28T17:06:27;10.70;72.90
41628;DHT22;27321;50.816;6.054;2022-12-28T17:09:28;10.70;73.30
41628;DHT22;27321;50.816;6.054;2022-12-28T17:12:29;10.60;73.30
41628;DHT22;27321;50.816;6.054;2022-12-28T17:15:30;10.60;73.60
41628;DHT22;27321;50.816;6.054;2022-12-28T17:18:31;10.70;73.60
41628;DHT22;27321;50.816;6.054;2022-12-28T17:21:35;10.70;73.70
41628;DHT22;27321;50.816;6.054;2022-12-28T17:24:37;10.70;73.60
41628;DHT22;27321;50.816;6.054;2022-12-28T17:27:38;10.60;73.60
41628;DHT22;27321;50.816;6.054;2022-12-28T17:30:39;10.60;74.10
41628;DHT22;27321;50.816;6.054;2022-12-28T17:33:45;10.60;73.90
41628;DHT22;27321;50.816;6.054;2022-12-28T17:36:47;10.60;74.40
41628;DHT22;27321;50.816;6.054;2022-12-28T17:39:48;10.60;74.80
41628;DHT22;27321;50.816;6.054;2022-12-28T17:42:49;10.60;74.60
41628;DHT22;27321;50.816;6.054;2022-12-28T17:45:50;10.50;74.50
41628;DHT22;27321;50.816;6.054;2022-12-28T17:48:52;10.50;75.00
41628;DHT22;27321;50.816;6.054;2022-12-28T17:51:57;10.50;75.20
41628;DHT22;27321;50.816;6.054;2022-12-28T17:54:58;10.50;75.30
41628;DHT22;27321;50.816;6.054;2022-12-28T17:57:59;10.40;75.30
41628;DHT22;27321;50.816;6.054;2022-12-28T18:01:00;10.40;75.40
41628;DHT22;27321;50.816;6.054;2022-12-28T18:04:01;10.50;75.40
41628;DHT22;27321;50.816;6.054;2022-12-28T18:07:02;10.40;76.00
41628;DHT22;27321;50.816;6.054;2022-12-28T18:10:04;10.30;76.10
41628;DHT22;27321;50.816;6.054;2022-12-28T18:13:05;10.30;76.40
41628;DHT22;27321;50.816;6.054;2022-12-28T18:16:10;10.40;76.50
41628;DHT22;27321;50.816;6.054;2022-12-28T18:19:15;10.40;76.50
41628;DHT22;27321;50.816;6.054;2022-12-28T18:22:15;10.40;76.50
41628;DHT22;27321;50.816;6.054;2022-12-28T18:25:17;10.30;76.70
41628;DHT22;27321;50.816;6.054;2022-12-28T18:28:18;10.30;76.80
41628;DHT22;27321;50.816;6.054;2022-12-28T18:31:20;10.30;76.90
41628;DHT22;27321;50.816;6.054;2022-12-28T18:34:21;10.30;77.10
41628;DHT22;27321;50.816;6.054;2022-12-28T18:37:21;10.30;77.30
41628;DHT22;27321;50.816;6.054;2022-12-28T18:40:22;10.30;77.50
41628;DHT22;27321;50.816;6.054;2022-12-28T18:43:24;10.30;77.70
41628;DHT22;27321;50.816;6.054;2022-12-28T18:46:25;10.30;77.80
41628;DHT22;27321;50.816;6.054;2022-12-28T18:49:26;10.40;77.80
41628;DHT22;27321;50.816;6.054;2022-12-28T18:52:29;10.30;77.90
41628;DHT22;27321;50.816;6.054;2022-12-28T18:55:35;10.40;78.10
41628;DHT22;27321;50.816;6.054;2022-12-28T18:58:37;10.30;78.30
41628;DHT22;27321;50.816;6.054;2022-12-28T19:01:39;10.30;78.20
41628;DHT22;27321;50.816;6.054;2022-12-28T19:04:40;10.30;78.80
41628;DHT22;27321;50.816;6.054;2022-12-28T19:07:41;10.30;78.40
41628;DHT22;27321;50.816;6.054;2022-12-28T19:10:47;10.30;78.30
41628;DHT22;27321;50.816;6.054;2022-12-28T19:13:51;10.30;78.30
41628;DHT22;27321;50.816;6.054;2022-12-28T19:16:52;10.40;78.50
41628;DHT22;27321;50.816;6.054;2022-12-28T19:19:52;10.40;78.20
41628;DHT22;27321;50.816;6.054;2022-12-28T19:22:53;10.50;78.20
41628;DHT22;27321;50.816;6.054;2022-12-28T19:25:55;10.50;78.30
41628;DHT22;27321;50.816;6.054;2022-12-28T19:28:59;10.50;78.40
41628;DHT22;27321;50.816;6.054;2022-12-28T19:32:00;10.60;78.20
41628;DHT22;27321;50.816;6.054;2022-12-28T19:35:01;10.60;78.00
41628;DHT22;27321;50.816;6.054;2022-12-28T19:38:02;10.60;78.00
41628;DHT22;27321;50.816;6.054;2022-12-28T19:41:08;10.70;78.00
41628;DHT22;27321;50.816;6.054;2022-12-28T19:44:13;10.70;78.00
41628;DHT22;27321;50.816;6.054;2022-12-28T19:47:19;10.80;77.90
41628;DHT22;27321;50.816;6.054;2022-12-28T19:50:20;10.80;77.90
41628;DHT22;27321;50.816;6.054;2022-12-28T19:53:22;10.80;78.20
41628;DHT22;27321;50.816;6.054;2022-12-28T19:56:23;10.80;78.60
41628;DHT22;27321;50.816;6.054;2022-12-28T19:59:24;10.80;78.80
41628;DHT22;27321;50.816;6.054;2022-12-28T20:02:25;10.80;79.10
41628;DHT22;27321;50.816;6.054;2022-12-28T20:05:26;10.80;79.20
41628;DHT22;27321;50.816;6.054;2022-12-28T20:08:29;10.80;79.30
41628;DHT22;27321;50.816;6.054;2022-12-28T20:11:30;10.90;79.30
41628;DHT22;27321;50.816;6.054;2022-12-28T20:14:31;10.90;79.20
41628;DHT22;27321;50.816;6.054;2022-12-28T20:17:32;11.00;79.10
41628;DHT22;27321;50.816;6.054;2022-12-28T20:20:34;11.00;79.20
41628;DHT22;27321;50.816;6.054;2022-12-28T20:23:35;11.00;79.10
41628;DHT22;27321;50.816;6.054;2022-12-28T20:26:37;11.00;79.00
41628;DHT22;27321;50.816;6.054;2022-12-28T20:29:38;11.00;79.00
41628;DHT22;27321;50.816;6.054;2022-12-28T20:32:39;11.10;79.00
41628;DHT22;27321;50.816;6.054;2022-12-28T20:35:41;11.10;78.90
41628;DHT22;27321;50.816;6.054;2022-12-28T20:38:42;11.10;78.80
41628;DHT22;27321;50.816;6.054;2022-12-28T20:41:43;11.20;78.90
41628;DHT22;27321;50.816;6.054;2022-12-28T20:45:03;11.10;78.80